sensor_id;sensor_type;location;lat;lon;timestamp;temperature;humidity
67133;HTU21D;54052;53.542;49.408;2022-11-20T00:00:15;-0.19;89.99
67133;HTU21D;54052;53.542;49.408;2022-11-20T00:02:41;-0.14;89.79
67133;HTU21D;54052;53.542;49.408;2022-11-20T00:05:07;-0.20;89.75
67133;HTU21D;54052;53.542;49.408;2022-11-20T00:07:34;-0.22;89.92
67133;HTU21D;54052;53.542;49.408;2022-11-20T00:10:00;-0.23;89.52
67133;HTU21D;54052;53.542;49.408;2022-11-20T00:12:26;-0.29;89.35
67133;HTU21D;54052;53.542;49.408;2022-11-20T00:14:52;-0.31;90.16
67133;HTU21D;54052;53.542;49.408;2022-11-20T00:17:18;-0.31;89.73
67133;HTU21D;54052;53.542;49.408;2022-11-20T00:19:44;-0.34;90.45
67133;HTU21D;54052;53.542;49.408;2022-11-20T00:22:10;-0.29;90.15
67133;HTU21D;54052;53.542;49.408;2022-11-20T00:24:42;-0.35;89.86
67133;HTU21D;54052;53.542;49.408;2022-11-20T00:27:08;-0.40;90.16
67133;HTU21D;54052;53.542;49.408;2022-11-20T00:29:34;-0.46;90.23
67133;HTU21D;54052;53.542;49.408;2022-11-20T00:32:00;-0.50;90.04
67133;HTU21D;54052;53.542;49.408;2022-11-20T00:34:26;-0.49;90.47
67133;HTU21D;54052;53.542;49.408;2022-11-20T00:36:52;-0.51;90.31
67133;HTU21D;54052;53.542;49.408;2022-11-20T00:39:18;-0.52;90.07
67133;HTU21D;54052;53.542;49.408;2022-11-20T00:41:44;-0.53;90.41
67133;HTU21D;54052;53.542;49.408;2022-11-20T00:44:10;-0.47;90.60
67133;HTU21D;54052;53.542;49.408;2022-11-20T00:46:36;-0.46;89.76
67133;HTU21D;54052;53.542;49.408;2022-11-20T00:49:02;-0.45;90.28
67133;HTU21D;54052;53.542;49.408;2022-11-20T00:51:28;-0.42;90.15
67133;HTU21D;54052;53.542;49.408;2022-11-20T00:53:56;-0.39;90.60
67133;HTU21D;54052;53.542;49.408;2022-11-20T00:56:22;-0.38;89.21
67133;HTU21D;54052;53.542;49.408;2022-11-20T00:58:49;-0.43;89.53
67133;HTU21D;54052;53.542;49.408;2022-11-20T01:01:18;-0.41;89.17
67133;HTU21D;54052;53.542;49.408;2022-11-20T01:03:47;-0.40;88.92
67133;HTU21D;54052;53.542;49.408;2022-11-20T01:06:16;-0.38;89.04
67133;HTU21D;54052;53.542;49.408;2022-11-20T01:08:43;-0.40;88.95
67133;HTU21D;54052;53.542;49.408;2022-11-20T01:11:15;-0.37;88.79
67133;HTU21D;54052;53.542;49.408;2022-11-20T01:13:42;-0.40;88.88
67133;HTU21D;54052;53.542;49.408;2022-11-20T01:18:38;-0.44;89.05
67133;HTU21D;54052;53.542;49.408;2022-11-20T01:21:07;-0.46;88.99
67133;HTU21D;54052;53.542;49.408;2022-11-20T01:23:35;-0.52;89.06
67133;HTU21D;54052;53.542;49.408;2022-11-20T01:26:04;-0.56;89.44
67133;HTU21D;54052;53.542;49.408;2022-11-20T01:28:31;-0.59;89.78
67133;HTU21D;54052;53.542;49.408;2022-11-20T01:30:57;-0.56;90.07
67133;HTU21D;54052;53.542;49.408;2022-11-20T01:33:23;-0.53;89.76
67133;HTU21D;54052;53.542;49.408;2022-11-20T01:35:50;-0.53;90.05
67133;HTU21D;54052;53.542;49.408;2022-11-20T01:38:16;-0.54;90.26
67133;HTU21D;54052;53.542;49.408;2022-11-20T01:40:42;-0.54;90.63
67133;HTU21D;54052;53.542;49.408;2022-11-20T01:43:19;-0.56;90.84
67133;HTU21D;54052;53.542;49.408;2022-11-20T01:48:14;-0.46;91.15
67133;HTU21D;54052;53.542;49.408;2022-11-20T01:50:41;-0.42;91.02
67133;HTU21D;54052;53.542;49.408;2022-11-20T01:53:11;-0.39;90.50
67133;HTU21D;54052;53.542;49.408;2022-11-20T01:55:47;-0.36;90.39
67133;HTU21D;54052;53.542;49.408;2022-11-20T01:58:15;-0.35;89.92
67133;HTU21D;54052;53.542;49.408;2022-11-20T02:00:42;-0.39;90.21
67133;HTU21D;54052;53.542;49.408;2022-11-20T02:03:14;-0.35;90.76
67133;HTU21D;54052;53.542;49.408;2022-11-20T02:08:30;-0.34;89.53
67133;HTU21D;54052;53.542;49.408;2022-11-20T02:10:56;-0.38;89.51
67133;HTU21D;54052;53.542;49.408;2022-11-20T02:13:23;-0.36;89.61
67133;HTU21D;54052;53.542;49.408;2022-11-20T02:16:35;-0.38;89.51
67133;HTU21D;54052;53.542;49.408;2022-11-20T02:19:05;-0.43;89.61
67133;HTU21D;54052;53.542;49.408;2022-11-20T02:21:47;-0.42;90.12
67133;HTU21D;54052;53.542;49.408;2022-11-20T02:24:17;-0.38;89.96
67133;HTU21D;54052;53.542;49.408;2022-11-20T02:29:26;-0.39;89.30
67133;HTU21D;54052;53.542;49.408;2022-11-20T02:31:56;-0.40;89.78
67133;HTU21D;54052;53.542;49.408;2022-11-20T02:34:23;-0.39;89.35
67133;HTU21D;54052;53.542;49.408;2022-11-20T02:36:51;-0.37;89.47
67133;HTU21D;54052;53.542;49.408;2022-11-20T02:39:19;-0.37;89.31
67133;HTU21D;54052;53.542;49.408;2022-11-20T02:41:56;-0.37;89.39
67133;HTU21D;54052;53.542;49.408;2022-11-20T02:44:22;-0.36;89.34
67133;HTU21D;54052;53.542;49.408;2022-11-20T02:46:48;-0.39;89.41
67133;HTU21D;54052;53.542;49.408;2022-11-20T02:49:14;-0.39;89.63
67133;HTU21D;54052;53.542;49.408;2022-11-20T02:51:40;-0.41;90.05
67133;HTU21D;54052;53.542;49.408;2022-11-20T02:54:06;-0.41;89.95
67133;HTU21D;54052;53.542;49.408;2022-11-20T02:56:32;-0.39;90.17
67133;HTU21D;54052;53.542;49.408;2022-11-20T02:58:58;-0.31;90.29
67133;HTU21D;54052;53.542;49.408;2022-11-20T03:01:24;-0.32;89.83
67133;HTU21D;54052;53.542;49.408;2022-11-20T03:03:50;-0.35;89.61
67133;HTU21D;54052;53.542;49.408;2022-11-20T03:06:27;-0.36;90.70
67133;HTU21D;54052;53.542;49.408;2022-11-20T03:08:53;-0.35;90.46
67133;HTU21D;54052;53.542;49.408;2022-11-20T03:11:19;-0.27;90.50
67133;HTU21D;54052;53.542;49.408;2022-11-20T03:13:45;-0.23;89.93
67133;HTU21D;54052;53.542;49.408;2022-11-20T03:16:14;-0.22;89.99
67133;HTU21D;54052;53.542;49.408;2022-11-20T03:18:44;-0.17;90.47
67133;HTU21D;54052;53.542;49.408;2022-11-20T03:21:11;-0.13;90.13
67133;HTU21D;54052;53.542;49.408;2022-11-20T03:23:38;-0.09;89.66
67133;HTU21D;54052;53.542;49.408;2022-11-20T03:26:09;-0.08;89.60
67133;HTU21D;54052;53.542;49.408;2022-11-20T03:28:36;-0.08;89.63
67133;HTU21D;54052;53.542;49.408;2022-11-20T03:31:10;-0.03;89.78
67133;HTU21D;54052;53.542;49.408;2022-11-20T03:33:37;-0.03;90.02
67133;HTU21D;54052;53.542;49.408;2022-11-20T03:36:05;-0.06;89.66
67133;HTU21D;54052;53.542;49.408;2022-11-20T03:38:31;-0.06;89.98
67133;HTU21D;54052;53.542;49.408;2022-11-20T03:41:06;-0.02;90.60
67133;HTU21D;54052;53.542;49.408;2022-11-20T03:43:36;0.02;90.51
67133;HTU21D;54052;53.542;49.408;2022-11-20T03:46:03;0.03;89.58
67133;HTU21D;54052;53.542;49.408;2022-11-20T03:48:29;-0.01;89.32
67133;HTU21D;54052;53.542;49.408;2022-11-20T03:51:08;-0.02;89.25
67133;HTU21D;54052;53.542;49.408;2022-11-20T03:53:34;-0.09;89.43
67133;HTU21D;54052;53.542;49.408;2022-11-20T03:56:01;-0.07;89.44
67133;HTU21D;54052;53.542;49.408;2022-11-20T03:58:27;-0.11;89.79
67133;HTU21D;54052;53.542;49.408;2022-11-20T04:00:53;-0.15;90.19
67133;HTU21D;54052;53.542;49.408;2022-11-20T04:03:19;-0.15;90.57
67133;HTU21D;54052;53.542;49.408;2022-11-20T04:05:45;-0.13;90.47
67133;HTU21D;54052;53.542;49.408;2022-11-20T04:08:11;-0.15;90.04
67133;HTU21D;54052;53.542;49.408;2022-11-20T04:10:37;-0.13;89.92
67133;HTU21D;54052;53.542;49.408;2022-11-20T04:13:03;-0.12;89.97
67133;HTU21D;54052;53.542;49.408;2022-11-20T04:15:32;-0.14;90.17
67133;HTU21D;54052;53.542;49.408;2022-11-20T04:17:58;-0.14;90.51
67133;HTU21D;54052;53.542;49.408;2022-11-20T04:20:24;-0.20;90.25
67133;HTU21D;54052;53.542;49.408;2022-11-20T04:22:53;-0.27;90.43
67133;HTU21D;54052;53.542;49.408;2022-11-20T04:25:20;-0.30;90.53
67133;HTU21D;54052;53.542;49.408;2022-11-20T04:27:46;-0.30;90.50
67133;HTU21D;54052;53.542;49.408;2022-11-20T04:30:12;-0.30;90.57
67133;HTU21D;54052;53.542;49.408;2022-11-20T04:32:38;-0.29;90.26
67133;HTU21D;54052;53.542;49.408;2022-11-20T04:35:05;-0.32;90.51
67133;HTU21D;54052;53.542;49.408;2022-11-20T04:37:31;-0.30;90.50
67133;HTU21D;54052;53.542;49.408;2022-11-20T04:39:57;-0.28;90.37
67133;HTU21D;54052;53.542;49.408;2022-11-20T04:42:23;-0.29;90.48
67133;HTU21D;54052;53.542;49.408;2022-11-20T04:44:56;-0.30;90.44
67133;HTU21D;54052;53.542;49.408;2022-11-20T04:47:22;-0.28;90.95
67133;HTU21D;54052;53.542;49.408;2022-11-20T04:49:48;-0.30;90.41
67133;HTU21D;54052;53.542;49.408;2022-11-20T04:52:14;-0.28;90.18
67133;HTU21D;54052;53.542;49.408;2022-11-20T04:54:40;-0.30;89.94
67133;HTU21D;54052;53.542;49.408;2022-11-20T04:57:06;-0.35;89.95
67133;HTU21D;54052;53.542;49.408;2022-11-20T04:59:32;-0.39;90.17
67133;HTU21D;54052;53.542;49.408;2022-11-20T05:01:58;-0.36;89.96
67133;HTU21D;54052;53.542;49.408;2022-11-20T05:04:25;-0.37;90.27
67133;HTU21D;54052;53.542;49.408;2022-11-20T05:06:51;-0.34;90.22
67133;HTU21D;54052;53.542;49.408;2022-11-20T05:09:17;-0.26;89.96
67133;HTU21D;54052;53.542;49.408;2022-11-20T05:11:43;-0.25;89.45
67133;HTU21D;54052;53.542;49.408;2022-11-20T05:14:09;-0.23;89.32
67133;HTU21D;54052;53.542;49.408;2022-11-20T05:16:35;-0.19;89.53
67133;HTU21D;54052;53.542;49.408;2022-11-20T05:19:02;-0.11;89.42
67133;HTU21D;54052;53.542;49.408;2022-11-20T05:21:30;-0.09;89.01
67133;HTU21D;54052;53.542;49.408;2022-11-20T05:23:56;-0.00;88.93
67133;HTU21D;54052;53.542;49.408;2022-11-20T05:26:23;0.07;88.71
67133;HTU21D;54052;53.542;49.408;2022-11-20T05:28:50;0.14;88.73
67133;HTU21D;54052;53.542;49.408;2022-11-20T05:31:21;0.21;88.12
67133;HTU21D;54052;53.542;49.408;2022-11-20T05:33:48;0.18;88.11
67133;HTU21D;54052;53.542;49.408;2022-11-20T05:36:14;0.15;88.24
67133;HTU21D;54052;53.542;49.408;2022-11-20T05:38:42;0.15;88.64
67133;HTU21D;54052;53.542;49.408;2022-11-20T05:41:16;0.14;88.50
67133;HTU21D;54052;53.542;49.408;2022-11-20T05:43:45;0.07;88.68
67133;HTU21D;54052;53.542;49.408;2022-11-20T05:46:12;0.05;88.81
67133;HTU21D;54052;53.542;49.408;2022-11-20T05:48:40;0.07;88.82
67133;HTU21D;54052;53.542;49.408;2022-11-20T05:51:09;0.06;88.76
67133;HTU21D;54052;53.542;49.408;2022-11-20T05:53:36;0.05;89.12
67133;HTU21D;54052;53.542;49.408;2022-11-20T05:56:09;0.02;89.15
67133;HTU21D;54052;53.542;49.408;2022-11-20T05:58:36;0.03;89.15
67133;HTU21D;54052;53.542;49.408;2022-11-20T06:03:43;0.09;88.83
67133;HTU21D;54052;53.542;49.408;2022-11-20T06:06:12;0.19;88.94
67133;HTU21D;54052;53.542;49.408;2022-11-20T06:08:38;0.31;88.46
67133;HTU21D;54052;53.542;49.408;2022-11-20T06:11:05;0.36;88.33
67133;HTU21D;54052;53.542;49.408;2022-11-20T06:13:32;0.47;88.29
67133;HTU21D;54052;53.542;49.408;2022-11-20T06:15:58;0.54;87.92
67133;HTU21D;54052;53.542;49.408;2022-11-20T06:18:26;0.65;87.62
67133;HTU21D;54052;53.542;49.408;2022-11-20T06:21:07;0.64;87.56
67133;HTU21D;54052;53.542;49.408;2022-11-20T06:23:34;0.72;87.43
67133;HTU21D;54052;53.542;49.408;2022-11-20T06:26:06;0.81;87.35
67133;HTU21D;54052;53.542;49.408;2022-11-20T06:28:32;0.92;86.94
67133;HTU21D;54052;53.542;49.408;2022-11-20T06:30:58;0.96;86.51
67133;HTU21D;54052;53.542;49.408;2022-11-20T06:33:25;1.02;86.61
67133;HTU21D;54052;53.542;49.408;2022-11-20T06:35:52;1.11;86.10
67133;HTU21D;54052;53.542;49.408;2022-11-20T06:38:18;1.19;85.88
67133;HTU21D;54052;53.542;49.408;2022-11-20T06:40:44;1.16;85.78
67133;HTU21D;54052;53.542;49.408;2022-11-20T06:43:10;1.09;86.51
67133;HTU21D;54052;53.542;49.408;2022-11-20T06:45:36;1.13;86.47
67133;HTU21D;54052;53.542;49.408;2022-11-20T06:48:03;1.19;86.31
67133;HTU21D;54052;53.542;49.408;2022-11-20T06:50:30;1.19;86.27
67133;HTU21D;54052;53.542;49.408;2022-11-20T06:52:56;1.20;86.44
67133;HTU21D;54052;53.542;49.408;2022-11-20T06:55:22;1.16;86.36
67133;HTU21D;54052;53.542;49.408;2022-11-20T06:57:48;1.20;86.96
67133;HTU21D;54052;53.542;49.408;2022-11-20T07:00:16;1.33;86.00
67133;HTU21D;54052;53.542;49.408;2022-11-20T07:02:42;1.41;85.98
67133;HTU21D;54052;53.542;49.408;2022-11-20T07:05:08;1.49;84.72
67133;HTU21D;54052;53.542;49.408;2022-11-20T07:07:34;1.49;85.25
67133;HTU21D;54052;53.542;49.408;2022-11-20T07:10:00;1.53;85.12
67133;HTU21D;54052;53.542;49.408;2022-11-20T07:12:26;1.57;85.10
67133;HTU21D;54052;53.542;49.408;2022-11-20T07:14:52;1.47;85.09
67133;HTU21D;54052;53.542;49.408;2022-11-20T07:17:18;1.33;85.33
67133;HTU21D;54052;53.542;49.408;2022-11-20T07:19:44;1.27;85.89
67133;HTU21D;54052;53.542;49.408;2022-11-20T07:22:10;1.25;86.36
67133;HTU21D;54052;53.542;49.408;2022-11-20T07:24:36;1.26;86.33
67133;HTU21D;54052;53.542;49.408;2022-11-20T07:27:02;1.22;86.66
67133;HTU21D;54052;53.542;49.408;2022-11-20T07:29:29;1.21;87.12
67133;HTU21D;54052;53.542;49.408;2022-11-20T07:31:55;1.24;87.22
67133;HTU21D;54052;53.542;49.408;2022-11-20T07:34:22;1.26;87.61
67133;HTU21D;54052;53.542;49.408;2022-11-20T07:36:48;1.35;86.86
67133;HTU21D;54052;53.542;49.408;2022-11-20T07:39:14;1.32;87.64
67133;HTU21D;54052;53.542;49.408;2022-11-20T07:41:40;1.35;86.97
67133;HTU21D;54052;53.542;49.408;2022-11-20T07:44:07;1.29;86.90
67133;HTU21D;54052;53.542;49.408;2022-11-20T07:46:33;1.24;87.29
67133;HTU21D;54052;53.542;49.408;2022-11-20T07:48:59;1.23;87.48
67133;HTU21D;54052;53.542;49.408;2022-11-20T07:51:25;1.21;87.92
67133;HTU21D;54052;53.542;49.408;2022-11-20T07:53:52;1.28;87.60
67133;HTU21D;54052;53.542;49.408;2022-11-20T07:56:18;1.37;88.06
67133;HTU21D;54052;53.542;49.408;2022-11-20T07:58:44;1.45;87.30
67133;HTU21D;54052;53.542;49.408;2022-11-20T08:01:10;1.46;87.89
67133;HTU21D;54052;53.542;49.408;2022-11-20T08:03:36;1.46;86.52
67133;HTU21D;54052;53.542;49.408;2022-11-20T08:06:05;1.39;87.36
67133;HTU21D;54052;53.542;49.408;2022-11-20T08:08:32;1.50;86.96
67133;HTU21D;54052;53.542;49.408;2022-11-20T08:10:58;1.57;86.19
67133;HTU21D;54052;53.542;49.408;2022-11-20T08:13:42;1.63;86.64
67133;HTU21D;54052;53.542;49.408;2022-11-20T08:16:27;1.60;86.41
67133;HTU21D;54052;53.542;49.408;2022-11-20T08:18:54;1.62;85.97
67133;HTU21D;54052;53.542;49.408;2022-11-20T08:21:20;1.68;86.38
67133;HTU21D;54052;53.542;49.408;2022-11-20T08:23:46;1.81;85.58
67133;HTU21D;54052;53.542;49.408;2022-11-20T08:26:12;1.82;85.55
67133;HTU21D;54052;53.542;49.408;2022-11-20T08:28:38;1.90;86.12
67133;HTU21D;54052;53.542;49.408;2022-11-20T08:31:04;2.00;84.93
67133;HTU21D;54052;53.542;49.408;2022-11-20T08:33:46;2.07;83.84
67133;HTU21D;54052;53.542;49.408;2022-11-20T08:36:13;2.01;84.23
67133;HTU21D;54052;53.542;49.408;2022-11-20T08:38:39;1.96;84.71
67133;HTU21D;54052;53.542;49.408;2022-11-20T08:41:05;1.94;85.37
67133;HTU21D;54052;53.542;49.408;2022-11-20T08:43:51;2.07;85.69
67133;HTU21D;54052;53.542;49.408;2022-11-20T08:46:17;1.99;85.31
67133;HTU21D;54052;53.542;49.408;2022-11-20T08:48:43;1.98;85.35
67133;HTU21D;54052;53.542;49.408;2022-11-20T08:51:11;2.01;84.92
67133;HTU21D;54052;53.542;49.408;2022-11-20T08:53:38;1.95;84.71
67133;HTU21D;54052;53.542;49.408;2022-11-20T08:56:05;2.02;85.32
67133;HTU21D;54052;53.542;49.408;2022-11-20T08:58:31;2.01;85.56
67133;HTU21D;54052;53.542;49.408;2022-11-20T09:00:57;1.99;85.51
67133;HTU21D;54052;53.542;49.408;2022-11-20T09:03:24;2.07;86.24
67133;HTU21D;54052;53.542;49.408;2022-11-20T09:06:04;2.14;85.45
67133;HTU21D;54052;53.542;49.408;2022-11-20T09:08:31;2.16;85.62
67133;HTU21D;54052;53.542;49.408;2022-11-20T09:10:58;2.22;85.69
67133;HTU21D;54052;53.542;49.408;2022-11-20T09:13:26;2.23;84.44
67133;HTU21D;54052;53.542;49.408;2022-11-20T09:15:57;2.10;85.12
67133;HTU21D;54052;53.542;49.408;2022-11-20T09:21:13;2.28;85.28
67133;HTU21D;54052;53.542;49.408;2022-11-20T09:23:40;2.36;85.60
67133;HTU21D;54052;53.542;49.408;2022-11-20T09:26:12;2.38;85.67
67133;HTU21D;54052;53.542;49.408;2022-11-20T09:28:39;2.38;86.25
67133;HTU21D;54052;53.542;49.408;2022-11-20T09:31:15;2.30;85.69
67133;HTU21D;54052;53.542;49.408;2022-11-20T09:33:43;2.31;86.17
67133;HTU21D;54052;53.542;49.408;2022-11-20T09:36:09;2.31;85.35
67133;HTU21D;54052;53.542;49.408;2022-11-20T09:38:35;2.29;85.96
67133;HTU21D;54052;53.542;49.408;2022-11-20T09:41:04;2.28;85.23
67133;HTU21D;54052;53.542;49.408;2022-11-20T09:46:14;2.38;85.54
67133;HTU21D;54052;53.542;49.408;2022-11-20T09:54:15;2.32;85.10
67133;HTU21D;54052;53.542;49.408;2022-11-20T09:57:33;2.34;84.72
67133;HTU21D;54052;53.542;49.408;2022-11-20T09:59:44;2.35;84.71
67133;HTU21D;54052;53.542;49.408;2022-11-20T10:05:04;2.39;84.35
67133;HTU21D;54052;53.542;49.408;2022-11-20T10:10:43;2.29;84.52
67133;HTU21D;54052;53.542;49.408;2022-11-20T10:25:19;2.34;83.53
67133;HTU21D;54052;53.542;49.408;2022-11-20T10:29:22;2.31;83.78
67133;HTU21D;54052;53.542;49.408;2022-11-20T10:31:59;2.22;83.85
67133;HTU21D;54052;53.542;49.408;2022-11-20T10:37:26;2.17;84.25
67133;HTU21D;54052;53.542;49.408;2022-11-20T10:47:54;2.03;84.99
67133;HTU21D;54052;53.542;49.408;2022-11-20T10:50:21;1.98;85.40
67133;HTU21D;54052;53.542;49.408;2022-11-20T10:55:58;1.85;85.29
67133;HTU21D;54052;53.542;49.408;2022-11-20T10:59:25;1.79;85.99
67133;HTU21D;54052;53.542;49.408;2022-11-20T11:01:42;1.77;86.00
67133;HTU21D;54052;53.542;49.408;2022-11-20T11:04:28;1.75;85.80
67133;HTU21D;54052;53.542;49.408;2022-11-20T11:07:06;1.71;86.13
67133;HTU21D;54052;53.542;49.408;2022-11-20T11:09:39;1.68;86.39
67133;HTU21D;54052;53.542;49.408;2022-11-20T11:12:10;1.71;86.77
67133;HTU21D;54052;53.542;49.408;2022-11-20T11:14:44;1.71;87.28
67133;HTU21D;54052;53.542;49.408;2022-11-20T11:17:26;1.73;86.78
67133;HTU21D;54052;53.542;49.408;2022-11-20T11:23:02;1.84;86.48
67133;HTU21D;54052;53.542;49.408;2022-11-20T11:25:30;1.86;86.01
67133;HTU21D;54052;53.542;49.408;2022-11-20T11:28:03;1.87;85.95
67133;HTU21D;54052;53.542;49.408;2022-11-20T11:30:41;1.91;86.35
67133;HTU21D;54052;53.542;49.408;2022-11-20T11:33:18;1.88;86.56
67133;HTU21D;54052;53.542;49.408;2022-11-20T11:35:47;1.87;85.76
67133;HTU21D;54052;53.542;49.408;2022-11-20T11:38:21;1.86;85.38
67133;HTU21D;54052;53.542;49.408;2022-11-20T11:40:56;1.91;84.68
67133;HTU21D;54052;53.542;49.408;2022-11-20T11:43:25;1.90;85.15
67133;HTU21D;54052;53.542;49.408;2022-11-20T11:49:08;1.93;84.92
67133;HTU21D;54052;53.542;49.408;2022-11-20T11:52:01;1.87;85.38
67133;HTU21D;54052;53.542;49.408;2022-11-20T11:54:35;1.84;85.41
67133;HTU21D;54052;53.542;49.408;2022-11-20T11:57:10;1.81;84.35
67133;HTU21D;54052;53.542;49.408;2022-11-20T12:02:58;1.75;85.22
67133;HTU21D;54052;53.542;49.408;2022-11-20T12:05:30;1.69;85.38
67133;HTU21D;54052;53.542;49.408;2022-11-20T12:08:12;1.63;85.87
67133;HTU21D;54052;53.542;49.408;2022-11-20T12:13:36;1.66;85.50
67133;HTU21D;54052;53.542;49.408;2022-11-20T12:16:04;1.64;85.66
67133;HTU21D;54052;53.542;49.408;2022-11-20T12:18:30;1.61;86.11
67133;HTU21D;54052;53.542;49.408;2022-11-20T12:24:28;1.53;86.14
67133;HTU21D;54052;53.542;49.408;2022-11-20T15:45:11;1.22;90.36
67133;HTU21D;54052;53.542;49.408;2022-11-20T15:47:38;1.17;90.44
67133;HTU21D;54052;53.542;49.408;2022-11-20T15:50:09;1.18;90.41
67133;HTU21D;54052;53.542;49.408;2022-11-20T15:52:41;1.17;91.11
67133;HTU21D;54052;53.542;49.408;2022-11-20T15:55:10;1.22;90.49
67133;HTU21D;54052;53.542;49.408;2022-11-20T15:57:36;1.25;90.82
67133;HTU21D;54052;53.542;49.408;2022-11-20T16:00:02;1.32;90.60
67133;HTU21D;54052;53.542;49.408;2022-11-20T16:02:29;1.34;90.12
67133;HTU21D;54052;53.542;49.408;2022-11-20T16:04:55;1.37;90.45
67133;HTU21D;54052;53.542;49.408;2022-11-20T16:07:21;1.38;90.23
67133;HTU21D;54052;53.542;49.408;2022-11-20T16:09:47;1.39;90.57
67133;HTU21D;54052;53.542;49.408;2022-11-20T16:12:13;1.41;90.84
67133;HTU21D;54052;53.542;49.408;2022-11-20T16:14:59;1.38;90.61
67133;HTU21D;54052;53.542;49.408;2022-11-20T16:17:43;1.37;90.55
67133;HTU21D;54052;53.542;49.408;2022-11-20T16:20:12;1.29;90.83
67133;HTU21D;54052;53.542;49.408;2022-11-20T16:22:38;1.32;91.15
67133;HTU21D;54052;53.542;49.408;2022-11-20T16:25:05;1.37;90.33
67133;HTU21D;54052;53.542;49.408;2022-11-20T16:27:31;1.45;89.96
67133;HTU21D;54052;53.542;49.408;2022-11-20T16:29:57;1.47;89.85
67133;HTU21D;54052;53.542;49.408;2022-11-20T16:32:23;1.48;89.61
67133;HTU21D;54052;53.542;49.408;2022-11-20T16:34:49;1.53;88.99
67133;HTU21D;54052;53.542;49.408;2022-11-20T16:37:15;1.57;89.40
67133;HTU21D;54052;53.542;49.408;2022-11-20T16:39:41;1.58;89.01
67133;HTU21D;54052;53.542;49.408;2022-11-20T16:42:07;1.56;89.07
67133;HTU21D;54052;53.542;49.408;2022-11-20T16:44:33;1.61;89.09
67133;HTU21D;54052;53.542;49.408;2022-11-20T16:47:00;1.61;88.67
67133;HTU21D;54052;53.542;49.408;2022-11-20T16:49:26;1.58;88.49
67133;HTU21D;54052;53.542;49.408;2022-11-20T16:51:52;1.60;88.49
67133;HTU21D;54052;53.542;49.408;2022-11-20T16:54:18;1.61;88.63
67133;HTU21D;54052;53.542;49.408;2022-11-20T16:56:44;1.60;88.59
67133;HTU21D;54052;53.542;49.408;2022-11-20T16:59:12;1.64;87.95
67133;HTU21D;54052;53.542;49.408;2022-11-20T17:01:39;1.61;88.27
67133;HTU21D;54052;53.542;49.408;2022-11-20T17:04:08;1.57;88.12
67133;HTU21D;54052;53.542;49.408;2022-11-20T17:06:36;1.56;88.16
67133;HTU21D;54052;53.542;49.408;2022-11-20T17:09:03;1.62;87.86
67133;HTU21D;54052;53.542;49.408;2022-11-20T17:11:29;1.54;87.42
67133;HTU21D;54052;53.542;49.408;2022-11-20T17:13:56;1.50;88.19
67133;HTU21D;54052;53.542;49.408;2022-11-20T17:16:25;1.50;87.64
67133;HTU21D;54052;53.542;49.408;2022-11-20T17:18:56;1.50;88.24
67133;HTU21D;54052;53.542;49.408;2022-11-20T17:21:22;1.49;88.38
67133;HTU21D;54052;53.542;49.408;2022-11-20T17:23:49;1.47;87.88
67133;HTU21D;54052;53.542;49.408;2022-11-20T17:26:19;1.46;88.27
67133;HTU21D;54052;53.542;49.408;2022-11-20T17:28:52;1.39;89.21
67133;HTU21D;54052;53.542;49.408;2022-11-20T17:31:19;1.29;89.16
67133;HTU21D;54052;53.542;49.408;2022-11-20T17:33:45;1.29;88.49
67133;HTU21D;54052;53.542;49.408;2022-11-20T17:36:14;1.33;88.07
67133;HTU21D;54052;53.542;49.408;2022-11-20T17:38:40;1.37;88.10
67133;HTU21D;54052;53.542;49.408;2022-11-20T17:41:09;1.36;87.91
67133;HTU21D;54052;53.542;49.408;2022-11-20T17:43:36;1.37;88.20
67133;HTU21D;54052;53.542;49.408;2022-11-20T17:46:20;1.36;88.06
67133;HTU21D;54052;53.542;49.408;2022-11-20T17:48:48;1.27;88.96
67133;HTU21D;54052;53.542;49.408;2022-11-20T17:51:15;1.22;89.87
67133;HTU21D;54052;53.542;49.408;2022-11-20T17:53:44;1.26;89.32
67133;HTU21D;54052;53.542;49.408;2022-11-20T17:56:11;1.25;89.25
67133;HTU21D;54052;53.542;49.408;2022-11-20T17:58:56;1.28;88.99
67133;HTU21D;54052;53.542;49.408;2022-11-20T18:01:22;1.27;89.10
67133;HTU21D;54052;53.542;49.408;2022-11-20T18:03:49;1.29;88.67
67133;HTU21D;54052;53.542;49.408;2022-11-20T18:06:20;1.26;89.25
67133;HTU21D;54052;53.542;49.408;2022-11-20T18:08:47;1.32;88.95
67133;HTU21D;54052;53.542;49.408;2022-11-20T18:11:16;1.40;88.51
67133;HTU21D;54052;53.542;49.408;2022-11-20T18:13:44;1.41;88.80
67133;HTU21D;54052;53.542;49.408;2022-11-20T18:16:31;1.41;88.87
67133;HTU21D;54052;53.542;49.408;2022-11-20T18:18:58;1.47;88.30
67133;HTU21D;54052;53.542;49.408;2022-11-20T18:21:26;1.50;87.87
67133;HTU21D;54052;53.542;49.408;2022-11-20T18:23:54;1.51;88.14
67133;HTU21D;54052;53.542;49.408;2022-11-20T18:26:20;1.56;87.32
67133;HTU21D;54052;53.542;49.408;2022-11-20T18:28:46;1.57;87.39
67133;HTU21D;54052;53.542;49.408;2022-11-20T18:31:12;1.60;86.92
67133;HTU21D;54052;53.542;49.408;2022-11-20T18:33:38;1.60;87.32
67133;HTU21D;54052;53.542;49.408;2022-11-20T18:36:18;1.63;87.09
67133;HTU21D;54052;53.542;49.408;2022-11-20T18:38:46;1.55;87.37
67133;HTU21D;54052;53.542;49.408;2022-11-20T18:41:18;1.51;88.14
67133;HTU21D;54052;53.542;49.408;2022-11-20T18:44:04;1.46;87.54
67133;HTU21D;54052;53.542;49.408;2022-11-20T18:46:49;1.54;87.14
67133;HTU21D;54052;53.542;49.408;2022-11-20T18:49:15;1.53;87.44
67133;HTU21D;54052;53.542;49.408;2022-11-20T18:51:42;1.54;87.25
67133;HTU21D;54052;53.542;49.408;2022-11-20T18:54:10;1.54;87.32
67133;HTU21D;54052;53.542;49.408;2022-11-20T18:56:36;1.47;87.35
67133;HTU21D;54052;53.542;49.408;2022-11-20T18:59:04;1.36;88.04
67133;HTU21D;54052;53.542;49.408;2022-11-20T19:01:30;1.33;88.49
67133;HTU21D;54052;53.542;49.408;2022-11-20T19:03:57;1.34;88.08
67133;HTU21D;54052;53.542;49.408;2022-11-20T19:06:24;1.34;88.47
67133;HTU21D;54052;53.542;49.408;2022-11-20T19:08:51;1.33;88.83
67133;HTU21D;54052;53.542;49.408;2022-11-20T19:11:17;1.23;87.96
67133;HTU21D;54052;53.542;49.408;2022-11-20T19:13:44;1.16;89.02
67133;HTU21D;54052;53.542;49.408;2022-11-20T19:16:18;1.12;89.21
67133;HTU21D;54052;53.542;49.408;2022-11-20T19:18:47;1.09;88.84
67133;HTU21D;54052;53.542;49.408;2022-11-20T19:21:19;1.02;90.05
67133;HTU21D;54052;53.542;49.408;2022-11-20T19:23:52;0.96;89.90
67133;HTU21D;54052;53.542;49.408;2022-11-20T19:26:19;0.93;90.73
67133;HTU21D;54052;53.542;49.408;2022-11-20T19:28:46;0.94;90.02
67133;HTU21D;54052;53.542;49.408;2022-11-20T19:31:15;0.91;90.11
67133;HTU21D;54052;53.542;49.408;2022-11-20T19:33:42;0.94;90.59
67133;HTU21D;54052;53.542;49.408;2022-11-20T19:38:38;1.01;89.84
67133;HTU21D;54052;53.542;49.408;2022-11-20T19:41:05;0.95;90.24
67133;HTU21D;54052;53.542;49.408;2022-11-20T19:43:32;0.95;90.67
67133;HTU21D;54052;53.542;49.408;2022-11-20T19:45:58;0.98;90.22
67133;HTU21D;54052;53.542;49.408;2022-11-20T19:48:25;0.99;89.55
67133;HTU21D;54052;53.542;49.408;2022-11-20T19:50:51;1.01;89.22
67133;HTU21D;54052;53.542;49.408;2022-11-20T19:53:17;1.04;89.17